sensor_id;sensor_type;location;lat;lon;timestamp;P1;durP1;ratioP1;P2;durP2;ratioP2
52838;SDS011;39219;53.678;9.856;2023-06-22T00:00:33;7.45;;;4.70;;
52838;SDS011;39219;53.678;9.856;2023-06-22T00:02:59;8.80;;;5.18;;
52838;SDS011;39219;53.678;9.856;2023-06-22T00:05:27;8.80;;;5.30;;
52838;SDS011;39219;53.678;9.856;2023-06-22T00:07:53;9.52;;;5.18;;
52838;SDS011;39219;53.678;9.856;2023-06-22T00:10:19;8.32;;;5.20;;
52838;SDS011;39219;53.678;9.856;2023-06-22T00:12:46;9.25;;;5.13;;
52838;SDS011;39219;53.678;9.856;2023-06-22T00:15:12;8.00;;;4.88;;
52838;SDS011;39219;53.678;9.856;2023-06-22T00:17:38;7.40;;;4.80;;
52838;SDS011;39219;53.678;9.856;2023-06-22T00:20:05;8.50;;;5.07;;
52838;SDS011;39219;53.678;9.856;2023-06-22T00:22:34;10.05;;;5.20;;
52838;SDS011;39219;53.678;9.856;2023-06-22T00:25:04;9.10;;;4.97;;
52838;SDS011;39219;53.678;9.856;2023-06-22T00:27:30;7.80;;;5.10;;
52838;SDS011;39219;53.678;9.856;2023-06-22T00:29:57;8.20;;;5.00;;
52838;SDS011;39219;53.678;9.856;2023-06-22T00:32:23;8.02;;;4.90;;
52838;SDS011;39219;53.678;9.856;2023-06-22T00:34:49;8.35;;;5.43;;
52838;SDS011;39219;53.678;9.856;2023-06-22T00:37:16;8.30;;;4.95;;
52838;SDS011;39219;53.678;9.856;2023-06-22T00:39:44;10.50;;;5.10;;
52838;SDS011;39219;53.678;9.856;2023-06-22T00:42:10;8.40;;;4.88;;
52838;SDS011;39219;53.678;9.856;2023-06-22T00:44:36;8.65;;;4.95;;
52838;SDS011;39219;53.678;9.856;2023-06-22T00:47:03;11.90;;;5.15;;
52838;SDS011;39219;53.678;9.856;2023-06-22T00:49:29;9.80;;;5.55;;
52838;SDS011;39219;53.678;9.856;2023-06-22T00:51:56;9.10;;;5.40;;
52838;SDS011;39219;53.678;9.856;2023-06-22T00:54:23;9.10;;;5.15;;
52838;SDS011;39219;53.678;9.856;2023-06-22T00:56:52;8.95;;;5.28;;
52838;SDS011;39219;53.678;9.856;2023-06-22T00:59:20;8.45;;;5.40;;
52838;SDS011;39219;53.678;9.856;2023-06-22T01:01:46;9.13;;;4.93;;
52838;SDS011;39219;53.678;9.856;2023-06-22T01:04:12;10.23;;;5.82;;
52838;SDS011;39219;53.678;9.856;2023-06-22T01:06:41;9.98;;;6.53;;
52838;SDS011;39219;53.678;9.856;2023-06-22T01:09:12;9.73;;;5.78;;
52838;SDS011;39219;53.678;9.856;2023-06-22T01:11:41;10.02;;;6.13;;
52838;SDS011;39219;53.678;9.856;2023-06-22T01:14:12;8.60;;;5.60;;
52838;SDS011;39219;53.678;9.856;2023-06-22T01:16:40;7.65;;;4.75;;
52838;SDS011;39219;53.678;9.856;2023-06-22T01:19:09;7.88;;;5.15;;
52838;SDS011;39219;53.678;9.856;2023-06-22T01:21:37;10.00;;;5.35;;
52838;SDS011;39219;53.678;9.856;2023-06-22T01:24:10;8.07;;;5.07;;
52838;SDS011;39219;53.678;9.856;2023-06-22T01:26:37;8.82;;;5.50;;
52838;SDS011;39219;53.678;9.856;2023-06-22T01:29:06;8.13;;;5.22;;
52838;SDS011;39219;53.678;9.856;2023-06-22T01:31:33;10.68;;;5.10;;
52838;SDS011;39219;53.678;9.856;2023-06-22T01:34:01;8.10;;;5.55;;
52838;SDS011;39219;53.678;9.856;2023-06-22T01:36:28;9.25;;;6.10;;
52838;SDS011;39219;53.678;9.856;2023-06-22T01:38:55;9.48;;;5.95;;
52838;SDS011;39219;53.678;9.856;2023-06-22T01:41:24;9.55;;;6.00;;
52838;SDS011;39219;53.678;9.856;2023-06-22T01:43:51;10.32;;;6.10;;
52838;SDS011;39219;53.678;9.856;2023-06-22T01:46:19;9.18;;;6.03;;
52838;SDS011;39219;53.678;9.856;2023-06-22T01:48:46;10.70;;;6.60;;
52838;SDS011;39219;53.678;9.856;2023-06-22T01:51:12;10.45;;;6.40;;
52838;SDS011;39219;53.678;9.856;2023-06-22T01:53:39;10.02;;;6.25;;
52838;SDS011;39219;53.678;9.856;2023-06-22T01:56:05;11.07;;;5.78;;
52838;SDS011;39219;53.678;9.856;2023-06-22T01:58:31;10.05;;;5.65;;
52838;SDS011;39219;53.678;9.856;2023-06-22T02:00:58;9.75;;;5.60;;
52838;SDS011;39219;53.678;9.856;2023-06-22T02:03:31;9.95;;;6.13;;
52838;SDS011;39219;53.678;9.856;2023-06-22T02:06:00;10.95;;;6.50;;
52838;SDS011;39219;53.678;9.856;2023-06-22T02:08:28;10.27;;;6.10;;
52838;SDS011;39219;53.678;9.856;2023-06-22T02:10:55;10.75;;;6.50;;
52838;SDS011;39219;53.678;9.856;2023-06-22T02:13:23;10.18;;;6.13;;
52838;SDS011;39219;53.678;9.856;2023-06-22T02:15:50;11.45;;;6.60;;
52838;SDS011;39219;53.678;9.856;2023-06-22T02:18:16;9.00;;;6.10;;
52838;SDS011;39219;53.678;9.856;2023-06-22T02:20:44;11.43;;;6.13;;
52838;SDS011;39219;53.678;9.856;2023-06-22T02:23:10;12.25;;;6.13;;
52838;SDS011;39219;53.678;9.856;2023-06-22T02:25:37;11.10;;;5.97;;
52838;SDS011;39219;53.678;9.856;2023-06-22T02:28:03;12.65;;;7.43;;
52838;SDS011;39219;53.678;9.856;2023-06-22T02:30:30;9.93;;;6.55;;
52838;SDS011;39219;53.678;9.856;2023-06-22T02:32:56;10.45;;;6.43;;
52838;SDS011;39219;53.678;9.856;2023-06-22T02:35:24;9.70;;;6.18;;
52838;SDS011;39219;53.678;9.856;2023-06-22T02:37:52;9.73;;;6.47;;
52838;SDS011;39219;53.678;9.856;2023-06-22T02:40:19;10.27;;;6.65;;
52838;SDS011;39219;53.678;9.856;2023-06-22T02:42:45;14.65;;;7.97;;
52838;SDS011;39219;53.678;9.856;2023-06-22T02:45:11;10.95;;;6.97;;
52838;SDS011;39219;53.678;9.856;2023-06-22T02:47:38;10.02;;;7.00;;
52838;SDS011;39219;53.678;9.856;2023-06-22T02:50:04;10.75;;;7.00;;
52838;SDS011;39219;53.678;9.856;2023-06-22T02:52:31;13.60;;;6.90;;
52838;SDS011;39219;53.678;9.856;2023-06-22T02:54:58;11.32;;;7.65;;
52838;SDS011;39219;53.678;9.856;2023-06-22T02:57:25;9.68;;;6.35;;
52838;SDS011;39219;53.678;9.856;2023-06-22T02:59:51;10.48;;;7.15;;
52838;SDS011;39219;53.678;9.856;2023-06-22T03:02:17;12.05;;;7.97;;
52838;SDS011;39219;53.678;9.856;2023-06-22T03:04:46;11.88;;;7.30;;
52838;SDS011;39219;53.678;9.856;2023-06-22T03:07:14;13.98;;;8.05;;
52838;SDS011;39219;53.678;9.856;2023-06-22T03:09:40;11.82;;;8.00;;
52838;SDS011;39219;53.678;9.856;2023-06-22T03:12:08;13.32;;;7.32;;
52838;SDS011;39219;53.678;9.856;2023-06-22T03:14:35;11.65;;;7.50;;
52838;SDS011;39219;53.678;9.856;2023-06-22T03:17:01;12.50;;;7.50;;
52838;SDS011;39219;53.678;9.856;2023-06-22T03:19:28;13.52;;;7.50;;
52838;SDS011;39219;53.678;9.856;2023-06-22T03:21:56;13.13;;;7.57;;
52838;SDS011;39219;53.678;9.856;2023-06-22T03:24:22;11.45;;;8.00;;
52838;SDS011;39219;53.678;9.856;2023-06-22T03:26:48;12.90;;;7.75;;
52838;SDS011;39219;53.678;9.856;2023-06-22T03:29:16;13.77;;;7.93;;
52838;SDS011;39219;53.678;9.856;2023-06-22T03:31:42;12.95;;;7.40;;
52838;SDS011;39219;53.678;9.856;2023-06-22T03:34:09;10.82;;;7.50;;
52838;SDS011;39219;53.678;9.856;2023-06-22T03:36:35;11.98;;;7.82;;
52838;SDS011;39219;53.678;9.856;2023-06-22T03:39:01;10.35;;;7.25;;
52838;SDS011;39219;53.678;9.856;2023-06-22T03:41:28;11.82;;;7.15;;
52838;SDS011;39219;53.678;9.856;2023-06-22T03:43:54;11.45;;;7.60;;
52838;SDS011;39219;53.678;9.856;2023-06-22T03:46:22;11.70;;;7.68;;
52838;SDS011;39219;53.678;9.856;2023-06-22T03:48:48;11.90;;;8.25;;
52838;SDS011;39219;53.678;9.856;2023-06-22T03:51:14;11.80;;;8.10;;
52838;SDS011;39219;53.678;9.856;2023-06-22T03:53:41;12.23;;;7.35;;
52838;SDS011;39219;53.678;9.856;2023-06-22T03:56:07;15.52;;;9.43;;
52838;SDS011;39219;53.678;9.856;2023-06-22T03:58:33;16.30;;;11.20;;
52838;SDS011;39219;53.678;9.856;2023-06-22T04:01:01;15.73;;;10.13;;
52838;SDS011;39219;53.678;9.856;2023-06-22T04:03:29;13.73;;;9.77;;
52838;SDS011;39219;53.678;9.856;2023-06-22T04:05:55;17.05;;;10.80;;
52838;SDS011;39219;53.678;9.856;2023-06-22T04:08:21;15.82;;;9.38;;
52838;SDS011;39219;53.678;9.856;2023-06-22T04:10:48;14.80;;;10.00;;
52838;SDS011;39219;53.678;9.856;2023-06-22T04:13:14;14.45;;;9.98;;
52838;SDS011;39219;53.678;9.856;2023-06-22T04:15:40;14.02;;;8.75;;
52838;SDS011;39219;53.678;9.856;2023-06-22T04:18:07;13.65;;;8.60;;
52838;SDS011;39219;53.678;9.856;2023-06-22T04:20:34;14.98;;;8.15;;
52838;SDS011;39219;53.678;9.856;2023-06-22T04:23:01;26.08;;;8.73;;
52838;SDS011;39219;53.678;9.856;2023-06-22T04:25:27;16.80;;;8.90;;
52838;SDS011;39219;53.678;9.856;2023-06-22T04:27:53;12.95;;;8.32;;
52838;SDS011;39219;53.678;9.856;2023-06-22T04:30:20;12.93;;;8.50;;
52838;SDS011;39219;53.678;9.856;2023-06-22T04:32:46;18.45;;;8.63;;
52838;SDS011;39219;53.678;9.856;2023-06-22T04:35:22;13.43;;;8.60;;
52838;SDS011;39219;53.678;9.856;2023-06-22T04:37:50;13.98;;;8.77;;
52838;SDS011;39219;53.678;9.856;2023-06-22T04:40:19;14.35;;;9.60;;
52838;SDS011;39219;53.678;9.856;2023-06-22T04:42:45;13.77;;;8.70;;
52838;SDS011;39219;53.678;9.856;2023-06-22T04:45:17;13.90;;;8.90;;
52838;SDS011;39219;53.678;9.856;2023-06-22T04:47:43;14.27;;;9.27;;
52838;SDS011;39219;53.678;9.856;2023-06-22T04:50:11;15.10;;;9.60;;
52838;SDS011;39219;53.678;9.856;2023-06-22T04:52:37;15.20;;;10.10;;
52838;SDS011;39219;53.678;9.856;2023-06-22T04:55:05;13.68;;;8.85;;
52838;SDS011;39219;53.678;9.856;2023-06-22T04:57:32;14.88;;;9.77;;
52838;SDS011;39219;53.678;9.856;2023-06-22T04:59:59;16.23;;;9.85;;
52838;SDS011;39219;53.678;9.856;2023-06-22T05:02:36;14.77;;;9.07;;
52838;SDS011;39219;53.678;9.856;2023-06-22T05:05:02;13.82;;;9.45;;
52838;SDS011;39219;53.678;9.856;2023-06-22T05:07:31;13.50;;;9.70;;
52838;SDS011;39219;53.678;9.856;2023-06-22T05:09:58;13.00;;;8.68;;
52838;SDS011;39219;53.678;9.856;2023-06-22T05:12:27;14.45;;;9.10;;
52838;SDS011;39219;53.678;9.856;2023-06-22T05:14:53;15.50;;;9.35;;
52838;SDS011;39219;53.678;9.856;2023-06-22T05:17:20;14.40;;;9.02;;
52838;SDS011;39219;53.678;9.856;2023-06-22T05:19:46;13.60;;;8.90;;
52838;SDS011;39219;53.678;9.856;2023-06-22T05:22:13;12.90;;;8.18;;
52838;SDS011;39219;53.678;9.856;2023-06-22T05:24:40;14.52;;;8.63;;
52838;SDS011;39219;53.678;9.856;2023-06-22T05:27:06;12.60;;;7.75;;
52838;SDS011;39219;53.678;9.856;2023-06-22T05:29:34;19.08;;;7.32;;
52838;SDS011;39219;53.678;9.856;2023-06-22T05:32:00;11.55;;;7.78;;
52838;SDS011;39219;53.678;9.856;2023-06-22T05:34:26;12.93;;;7.80;;
52838;SDS011;39219;53.678;9.856;2023-06-22T05:36:53;11.77;;;7.82;;
52838;SDS011;39219;53.678;9.856;2023-06-22T05:39:19;12.77;;;6.97;;
52838;SDS011;39219;53.678;9.856;2023-06-22T05:41:46;11.23;;;7.50;;
52838;SDS011;39219;53.678;9.856;2023-06-22T05:44:12;10.52;;;6.95;;
52838;SDS011;39219;53.678;9.856;2023-06-22T05:46:40;9.40;;;6.22;;
52838;SDS011;39219;53.678;9.856;2023-06-22T05:49:09;9.60;;;5.80;;
52838;SDS011;39219;53.678;9.856;2023-06-22T05:51:35;9.45;;;5.72;;
52838;SDS011;39219;53.678;9.856;2023-06-22T05:54:02;8.38;;;5.57;;
52838;SDS011;39219;53.678;9.856;2023-06-22T05:56:28;9.20;;;5.80;;
52838;SDS011;39219;53.678;9.856;2023-06-22T05:58:54;9.68;;;5.35;;
52838;SDS011;39219;53.678;9.856;2023-06-22T06:01:20;9.35;;;6.25;;
52838;SDS011;39219;53.678;9.856;2023-06-22T06:03:48;8.75;;;6.05;;
52838;SDS011;39219;53.678;9.856;2023-06-22T06:06:15;8.02;;;5.30;;
52838;SDS011;39219;53.678;9.856;2023-06-22T06:08:41;8.45;;;5.10;;
52838;SDS011;39219;53.678;9.856;2023-06-22T06:11:07;9.13;;;5.13;;
52838;SDS011;39219;53.678;9.856;2023-06-22T06:13:34;8.50;;;4.55;;
52838;SDS011;39219;53.678;9.856;2023-06-22T06:16:00;8.05;;;4.68;;
52838;SDS011;39219;53.678;9.856;2023-06-22T06:18:26;8.57;;;3.85;;
52838;SDS011;39219;53.678;9.856;2023-06-22T06:20:54;6.20;;;4.38;;
52838;SDS011;39219;53.678;9.856;2023-06-22T06:23:20;8.50;;;4.82;;
52838;SDS011;39219;53.678;9.856;2023-06-22T06:25:46;6.53;;;4.20;;
52838;SDS011;39219;53.678;9.856;2023-06-22T06:28:13;7.93;;;4.40;;
52838;SDS011;39219;53.678;9.856;2023-06-22T06:30:39;6.55;;;4.45;;
52838;SDS011;39219;53.678;9.856;2023-06-22T06:33:06;6.10;;;4.13;;
52838;SDS011;39219;53.678;9.856;2023-06-22T06:35:33;4.80;;;3.50;;
52838;SDS011;39219;53.678;9.856;2023-06-22T06:38:01;7.40;;;4.00;;
52838;SDS011;39219;53.678;9.856;2023-06-22T06:40:27;6.50;;;3.47;;
52838;SDS011;39219;53.678;9.856;2023-06-22T06:42:54;6.25;;;3.50;;
52838;SDS011;39219;53.678;9.856;2023-06-22T06:45:20;5.35;;;3.42;;
52838;SDS011;39219;53.678;9.856;2023-06-22T06:47:48;5.65;;;3.38;;
52838;SDS011;39219;53.678;9.856;2023-06-22T06:50:14;6.00;;;3.47;;
52838;SDS011;39219;53.678;9.856;2023-06-22T06:52:40;5.95;;;3.50;;
52838;SDS011;39219;53.678;9.856;2023-06-22T06:55:09;4.32;;;3.10;;
52838;SDS011;39219;53.678;9.856;2023-06-22T06:57:36;6.80;;;3.40;;
52838;SDS011;39219;53.678;9.856;2023-06-22T07:00:03;6.18;;;3.17;;
52838;SDS011;39219;53.678;9.856;2023-06-22T07:02:35;5.20;;;3.22;;
52838;SDS011;39219;53.678;9.856;2023-06-22T07:05:01;4.80;;;3.17;;
52838;SDS011;39219;53.678;9.856;2023-06-22T07:07:29;5.22;;;3.00;;
52838;SDS011;39219;53.678;9.856;2023-06-22T07:09:55;4.03;;;2.70;;
52838;SDS011;39219;53.678;9.856;2023-06-22T07:12:23;4.22;;;2.72;;
52838;SDS011;39219;53.678;9.856;2023-06-22T07:14:49;4.05;;;2.70;;
52838;SDS011;39219;53.678;9.856;2023-06-22T07:17:16;4.50;;;2.92;;
52838;SDS011;39219;53.678;9.856;2023-06-22T07:19:42;5.13;;;3.00;;
52838;SDS011;39219;53.678;9.856;2023-06-22T07:22:08;5.07;;;2.78;;
52838;SDS011;39219;53.678;9.856;2023-06-22T07:24:34;5.07;;;2.80;;
52838;SDS011;39219;53.678;9.856;2023-06-22T07:27:02;3.40;;;2.38;;
52838;SDS011;39219;53.678;9.856;2023-06-22T07:29:31;5.35;;;3.00;;
52838;SDS011;39219;53.678;9.856;2023-06-22T07:31:58;4.72;;;2.80;;
52838;SDS011;39219;53.678;9.856;2023-06-22T07:34:25;3.67;;;2.60;;
52838;SDS011;39219;53.678;9.856;2023-06-22T07:36:52;4.30;;;3.10;;
52838;SDS011;39219;53.678;9.856;2023-06-22T07:39:18;3.15;;;2.60;;
52838;SDS011;39219;53.678;9.856;2023-06-22T07:41:47;5.35;;;2.80;;
52838;SDS011;39219;53.678;9.856;2023-06-22T07:44:13;4.85;;;2.65;;
52838;SDS011;39219;53.678;9.856;2023-06-22T07:46:41;4.47;;;2.85;;
52838;SDS011;39219;53.678;9.856;2023-06-22T07:49:07;5.05;;;2.63;;
52838;SDS011;39219;53.678;9.856;2023-06-22T07:51:34;3.53;;;2.70;;
52838;SDS011;39219;53.678;9.856;2023-06-22T07:54:00;3.83;;;2.78;;
52838;SDS011;39219;53.678;9.856;2023-06-22T07:56:26;4.90;;;2.88;;
52838;SDS011;39219;53.678;9.856;2023-06-22T07:58:53;4.25;;;2.72;;
52838;SDS011;39219;53.678;9.856;2023-06-22T08:01:20;3.53;;;2.60;;
52838;SDS011;39219;53.678;9.856;2023-06-22T08:03:48;3.42;;;2.70;;
52838;SDS011;39219;53.678;9.856;2023-06-22T08:06:15;3.00;;;2.50;;
52838;SDS011;39219;53.678;9.856;2023-06-22T08:08:41;4.20;;;2.65;;
52838;SDS011;39219;53.678;9.856;2023-06-22T08:11:08;4.53;;;2.88;;
52838;SDS011;39219;53.678;9.856;2023-06-22T08:13:34;4.70;;;2.70;;
52838;SDS011;39219;53.678;9.856;2023-06-22T08:16:01;4.60;;;2.58;;
52838;SDS011;39219;53.678;9.856;2023-06-22T08:18:27;4.15;;;2.60;;
52838;SDS011;39219;53.678;9.856;2023-06-22T08:20:55;3.15;;;2.28;;
52838;SDS011;39219;53.678;9.856;2023-06-22T08:23:21;5.20;;;2.50;;
52838;SDS011;39219;53.678;9.856;2023-06-22T08:25:47;2.85;;;2.40;;
52838;SDS011;39219;53.678;9.856;2023-06-22T08:28:15;3.78;;;2.50;;
52838;SDS011;39219;53.678;9.856;2023-06-22T08:30:41;6.05;;;2.60;;
52838;SDS011;39219;53.678;9.856;2023-06-22T08:33:08;5.22;;;2.78;;
52838;SDS011;39219;53.678;9.856;2023-06-22T08:35:34;4.20;;;2.63;;
52838;SDS011;39219;53.678;9.856;2023-06-22T08:38:01;4.35;;;2.60;;
52838;SDS011;39219;53.678;9.856;2023-06-22T08:40:28;3.97;;;2.80;;
52838;SDS011;39219;53.678;9.856;2023-06-22T08:42:55;4.97;;;2.83;;
52838;SDS011;39219;53.678;9.856;2023-06-22T08:45:21;4.60;;;2.58;;
52838;SDS011;39219;53.678;9.856;2023-06-22T08:47:47;3.90;;;2.83;;
52838;SDS011;39219;53.678;9.856;2023-06-22T08:50:14;5.05;;;3.05;;
52838;SDS011;39219;53.678;9.856;2023-06-22T08:52:40;4.20;;;2.65;;
52838;SDS011;39219;53.678;9.856;2023-06-22T08:55:08;3.15;;;2.33;;
52838;SDS011;39219;53.678;9.856;2023-06-22T08:57:35;2.80;;;2.00;;
52838;SDS011;39219;53.678;9.856;2023-06-22T09:00:04;3.80;;;2.40;;
52838;SDS011;39219;53.678;9.856;2023-06-22T09:02:36;4.47;;;2.50;;
52838;SDS011;39219;53.678;9.856;2023-06-22T09:05:03;3.15;;;2.28;;
52838;SDS011;39219;53.678;9.856;2023-06-22T09:07:30;4.72;;;3.10;;
52838;SDS011;39219;53.678;9.856;2023-06-22T09:09:56;4.00;;;2.40;;
52838;SDS011;39219;53.678;9.856;2023-06-22T09:12:24;3.72;;;2.53;;
52838;SDS011;39219;53.678;9.856;2023-06-22T09:14:52;3.25;;;2.42;;
52838;SDS011;39219;53.678;9.856;2023-06-22T09:17:18;3.85;;;2.40;;
52838;SDS011;39219;53.678;9.856;2023-06-22T09:19:45;3.22;;;2.38;;
52838;SDS011;39219;53.678;9.856;2023-06-22T09:22:11;2.90;;;2.40;;
52838;SDS011;39219;53.678;9.856;2023-06-22T09:24:37;5.15;;;2.70;;
52838;SDS011;39219;53.678;9.856;2023-06-22T09:27:04;3.95;;;2.65;;
52838;SDS011;39219;53.678;9.856;2023-06-22T09:29:32;3.25;;;2.50;;
52838;SDS011;39219;53.678;9.856;2023-06-22T09:31:59;5.28;;;3.00;;
52838;SDS011;39219;53.678;9.856;2023-06-22T09:34:25;5.18;;;2.70;;
52838;SDS011;39219;53.678;9.856;2023-06-22T09:36:52;4.43;;;2.70;;
52838;SDS011;39219;53.678;9.856;2023-06-22T09:39:18;4.03;;;2.55;;
52838;SDS011;39219;53.678;9.856;2023-06-22T09:41:44;4.13;;;2.53;;
52838;SDS011;39219;53.678;9.856;2023-06-22T09:44:11;4.38;;;2.65;;
52838;SDS011;39219;53.678;9.856;2023-06-22T09:46:38;3.88;;;2.50;;
52838;SDS011;39219;53.678;9.856;2023-06-22T09:49:05;3.85;;;2.38;;
52838;SDS011;39219;53.678;9.856;2023-06-22T09:51:31;3.40;;;2.50;;
52838;SDS011;39219;53.678;9.856;2023-06-22T09:53:57;4.13;;;2.72;;
52838;SDS011;39219;53.678;9.856;2023-06-22T09:56:23;3.95;;;2.28;;
52838;SDS011;39219;53.678;9.856;2023-06-22T09:58:52;5.25;;;2.63;;
52838;SDS011;39219;53.678;9.856;2023-06-22T10:01:18;4.45;;;2.80;;
52838;SDS011;39219;53.678;9.856;2023-06-22T10:03:46;3.92;;;2.83;;
52838;SDS011;39219;53.678;9.856;2023-06-22T10:06:13;3.35;;;2.63;;
52838;SDS011;39219;53.678;9.856;2023-06-22T10:08:39;6.55;;;3.70;;
52838;SDS011;39219;53.678;9.856;2023-06-22T10:11:05;5.70;;;3.63;;
52838;SDS011;39219;53.678;9.856;2023-06-22T10:13:32;7.88;;;3.45;;
52838;SDS011;39219;53.678;9.856;2023-06-22T10:15:58;5.70;;;3.10;;
52838;SDS011;39219;53.678;9.856;2023-06-22T10:18:24;4.65;;;3.03;;
52838;SDS011;39219;53.678;9.856;2023-06-22T10:20:52;5.05;;;3.30;;
52838;SDS011;39219;53.678;9.856;2023-06-22T10:23:18;5.78;;;3.40;;
52838;SDS011;39219;53.678;9.856;2023-06-22T10:25:45;3.92;;;2.80;;
52838;SDS011;39219;53.678;9.856;2023-06-22T10:28:11;7.10;;;3.00;;
52838;SDS011;39219;53.678;9.856;2023-06-22T10:30:38;5.63;;;3.10;;
52838;SDS011;39219;53.678;9.856;2023-06-22T10:33:06;5.03;;;3.15;;
52838;SDS011;39219;53.678;9.856;2023-06-22T10:35:32;5.40;;;3.30;;
52838;SDS011;39219;53.678;9.856;2023-06-22T10:38:00;5.28;;;3.20;;
52838;SDS011;39219;53.678;9.856;2023-06-22T10:40:26;4.38;;;3.00;;
52838;SDS011;39219;53.678;9.856;2023-06-22T10:42:52;5.68;;;3.20;;
52838;SDS011;39219;53.678;9.856;2023-06-22T10:45:19;3.97;;;2.78;;
52838;SDS011;39219;53.678;9.856;2023-06-22T10:47:45;4.90;;;3.00;;
52838;SDS011;39219;53.678;9.856;2023-06-22T10:50:11;5.28;;;3.00;;
52838;SDS011;39219;53.678;9.856;2023-06-22T10:52:38;4.50;;;3.13;;
52838;SDS011;39219;53.678;9.856;2023-06-22T10:55:06;5.82;;;3.60;;
52838;SDS011;39219;53.678;9.856;2023-06-22T10:57:32;6.07;;;3.45;;
52838;SDS011;39219;53.678;9.856;2023-06-22T10:59:58;6.53;;;3.25;;
52838;SDS011;39219;53.678;9.856;2023-06-22T11:02:25;5.85;;;3.72;;
52838;SDS011;39219;53.678;9.856;2023-06-22T11:04:53;5.13;;;3.75;;
52838;SDS011;39219;53.678;9.856;2023-06-22T11:07:19;5.13;;;3.15;;
52838;SDS011;39219;53.678;9.856;2023-06-22T11:09:45;6.32;;;3.83;;
52838;SDS011;39219;53.678;9.856;2023-06-22T11:12:13;5.55;;;3.92;;
52838;SDS011;39219;53.678;9.856;2023-06-22T11:14:39;5.57;;;3.67;;
52838;SDS011;39219;53.678;9.856;2023-06-22T11:17:06;7.30;;;3.60;;
52838;SDS011;39219;53.678;9.856;2023-06-22T11:19:32;4.75;;;3.30;;
52838;SDS011;39219;53.678;9.856;2023-06-22T11:21:59;4.93;;;3.50;;
52838;SDS011;39219;53.678;9.856;2023-06-22T11:24:25;5.85;;;3.70;;
52838;SDS011;39219;53.678;9.856;2023-06-22T11:26:51;4.80;;;3.70;;
52838;SDS011;39219;53.678;9.856;2023-06-22T11:29:19;4.80;;;3.47;;
52838;SDS011;39219;53.678;9.856;2023-06-22T11:31:45;7.65;;;3.85;;
52838;SDS011;39219;53.678;9.856;2023-06-22T11:34:11;4.68;;;3.63;;
52838;SDS011;39219;53.678;9.856;2023-06-22T11:36:38;5.90;;;3.70;;
52838;SDS011;39219;53.678;9.856;2023-06-22T11:39:04;5.22;;;3.50;;
52838;SDS011;39219;53.678;9.856;2023-06-22T11:41:31;5.70;;;3.38;;
52838;SDS011;39219;53.678;9.856;2023-06-22T11:43:57;6.68;;;3.40;;
52838;SDS011;39219;53.678;9.856;2023-06-22T11:46:25;5.40;;;3.53;;
52838;SDS011;39219;53.678;9.856;2023-06-22T11:48:51;5.97;;;3.65;;
52838;SDS011;39219;53.678;9.856;2023-06-22T11:51:17;4.53;;;3.53;;
52838;SDS011;39219;53.678;9.856;2023-06-22T11:53:44;5.93;;;3.95;;
52838;SDS011;39219;53.678;9.856;2023-06-22T11:56:10;7.03;;;3.85;;
52838;SDS011;39219;53.678;9.856;2023-06-22T11:58:36;5.80;;;3.65;;
52838;SDS011;39219;53.678;9.856;2023-06-22T12:01:03;5.57;;;3.72;;
52838;SDS011;39219;53.678;9.856;2023-06-22T12:03:31;5.53;;;4.00;;
52838;SDS011;39219;53.678;9.856;2023-06-22T12:05:57;5.78;;;3.80;;
52838;SDS011;39219;53.678;9.856;2023-06-22T12:08:24;5.32;;;3.60;;
52838;SDS011;39219;53.678;9.856;2023-06-22T12:10:50;6.68;;;4.00;;
52838;SDS011;39219;53.678;9.856;2023-06-22T12:13:17;6.95;;;4.10;;
52838;SDS011;39219;53.678;9.856;2023-06-22T12:15:43;5.85;;;3.47;;
52838;SDS011;39219;53.678;9.856;2023-06-22T12:18:10;8.65;;;3.88;;
52838;SDS011;39219;53.678;9.856;2023-06-22T12:20:40;5.72;;;3.78;;
52838;SDS011;39219;53.678;9.856;2023-06-22T12:23:06;6.18;;;4.00;;
52838;SDS011;39219;53.678;9.856;2023-06-22T12:25:33;5.88;;;4.10;;
52838;SDS011;39219;53.678;9.856;2023-06-22T12:27:59;7.28;;;3.97;;
52838;SDS011;39219;53.678;9.856;2023-06-22T12:30:25;4.50;;;3.75;;
52838;SDS011;39219;53.678;9.856;2023-06-22T12:32:52;6.57;;;3.92;;
52838;SDS011;39219;53.678;9.856;2023-06-22T12:35:18;6.78;;;3.85;;
52838;SDS011;39219;53.678;9.856;2023-06-22T12:37:46;6.20;;;4.07;;
52838;SDS011;39219;53.678;9.856;2023-06-22T12:40:12;6.00;;;3.78;;
52838;SDS011;39219;53.678;9.856;2023-06-22T12:42:39;5.75;;;4.05;;
52838;SDS011;39219;53.678;9.856;2023-06-22T12:45:05;5.43;;;3.85;;
52838;SDS011;39219;53.678;9.856;2023-06-22T12:47:32;5.20;;;4.10;;
52838;SDS011;39219;53.678;9.856;2023-06-22T12:49:58;5.80;;;3.65;;
52838;SDS011;39219;53.678;9.856;2023-06-22T12:52:24;5.32;;;4.03;;
52838;SDS011;39219;53.678;9.856;2023-06-22T12:54:52;6.20;;;4.07;;
52838;SDS011;39219;53.678;9.856;2023-06-22T12:57:19;6.63;;;4.22;;
52838;SDS011;39219;53.678;9.856;2023-06-22T12:59:45;6.00;;;3.95;;
52838;SDS011;39219;53.678;9.856;2023-06-22T13:02:12;6.38;;;4.25;;
52838;SDS011;39219;53.678;9.856;2023-06-22T13:04:38;5.40;;;4.20;;
52838;SDS011;39219;53.678;9.856;2023-06-22T13:07:04;6.15;;;4.28;;
52838;SDS011;39219;53.678;9.856;2023-06-22T13:09:31;7.07;;;4.18;;
52838;SDS011;39219;53.678;9.856;2023-06-22T13:11:59;6.13;;;4.20;;
52838;SDS011;39219;53.678;9.856;2023-06-22T13:14:25;7.18;;;4.30;;
52838;SDS011;39219;53.678;9.856;2023-06-22T13:16:51;6.35;;;4.45;;
52838;SDS011;39219;53.678;9.856;2023-06-22T13:19:18;6.57;;;4.30;;
52838;SDS011;39219;53.678;9.856;2023-06-22T13:21:44;5.88;;;4.22;;
52838;SDS011;39219;53.678;9.856;2023-06-22T13:24:10;6.32;;;4.20;;
52838;SDS011;39219;53.678;9.856;2023-06-22T13:26:37;6.28;;;4.10;;
52838;SDS011;39219;53.678;9.856;2023-06-22T13:29:04;5.68;;;4.00;;
52838;SDS011;39219;53.678;9.856;2023-06-22T13:31:31;5.30;;;4.00;;
52838;SDS011;39219;53.678;9.856;2023-06-22T13:33:57;5.85;;;4.25;;
52838;SDS011;39219;53.678;9.856;2023-06-22T13:36:23;6.28;;;4.03;;
52838;SDS011;39219;53.678;9.856;2023-06-22T13:38:49;7.03;;;4.10;;
52838;SDS011;39219;53.678;9.856;2023-06-22T13:41:16;7.53;;;4.57;;
52838;SDS011;39219;53.678;9.856;2023-06-22T13:43:42;5.93;;;4.30;;
52838;SDS011;39219;53.678;9.856;2023-06-22T13:46:10;7.28;;;4.25;;
52838;SDS011;39219;53.678;9.856;2023-06-22T13:48:36;6.03;;;4.30;;
52838;SDS011;39219;53.678;9.856;2023-06-22T13:51:02;5.20;;;4.10;;
52838;SDS011;39219;53.678;9.856;2023-06-22T13:53:29;8.00;;;4.00;;
52838;SDS011;39219;53.678;9.856;2023-06-22T13:55:55;6.20;;;4.10;;
52838;SDS011;39219;53.678;9.856;2023-06-22T13:58:21;6.78;;;4.38;;
52838;SDS011;39219;53.678;9.856;2023-06-22T14:00:48;6.00;;;4.18;;
52838;SDS011;39219;53.678;9.856;2023-06-22T14:03:16;5.93;;;4.55;;
52838;SDS011;39219;53.678;9.856;2023-06-22T14:05:43;6.10;;;4.32;;
52838;SDS011;39219;53.678;9.856;2023-06-22T14:08:09;6.60;;;4.30;;
52838;SDS011;39219;53.678;9.856;2023-06-22T14:10:36;7.05;;;4.80;;
52838;SDS011;39219;53.678;9.856;2023-06-22T14:13:02;7.82;;;4.53;;
52838;SDS011;39219;53.678;9.856;2023-06-22T14:15:30;6.50;;;4.57;;
52838;SDS011;39219;53.678;9.856;2023-06-22T14:17:57;7.13;;;4.60;;
52838;SDS011;39219;53.678;9.856;2023-06-22T14:20:24;6.13;;;4.55;;
52838;SDS011;39219;53.678;9.856;2023-06-22T14:22:51;6.80;;;4.88;;
52838;SDS011;39219;53.678;9.856;2023-06-22T14:25:17;7.68;;;4.65;;
52838;SDS011;39219;53.678;9.856;2023-06-22T14:27:43;6.60;;;4.85;;
52838;SDS011;39219;53.678;9.856;2023-06-22T14:30:10;7.25;;;5.20;;
52838;SDS011;39219;53.678;9.856;2023-06-22T14:32:36;9.20;;;5.10;;
52838;SDS011;39219;53.678;9.856;2023-06-22T14:35:03;7.97;;;5.20;;
52838;SDS011;39219;53.678;9.856;2023-06-22T14:37:30;6.43;;;4.47;;
52838;SDS011;39219;53.678;9.856;2023-06-22T14:39:57;9.13;;;4.68;;